sensor_id;sensor_type;location;lat;lon;timestamp;P1;durP1;ratioP1;P2;durP2;ratioP2
73315;SDS011;61545;53.726;-0.444;2023-02-15T00:04:54;48.9;;;27;;
73315;SDS011;61545;53.726;-0.444;2023-02-15T00:09:54;47.9;;;25.9;;
73315;SDS011;61545;53.726;-0.444;2023-02-15T00:14:54;47.9;;;25.9;;
73315;SDS011;61545;53.726;-0.444;2023-02-15T00:19:54;49.4;;;27.6;;
73315;SDS011;61545;53.726;-0.444;2023-02-15T00:24:54;57.0;;;30.7;;
73315;SDS011;61545;53.726;-0.444;2023-02-15T00:29:54;62.4;;;34.3;;
73315;SDS011;61545;53.726;-0.444;2023-02-15T00:34:54;48.8;;;28.4;;
73315;SDS011;61545;53.726;-0.444;2023-02-15T00:39:54;53.7;;;29.7;;
73315;SDS011;61545;53.726;-0.444;2023-02-15T00:44:54;53.7;;;29.7;;
73315;SDS011;61545;53.726;-0.444;2023-02-15T00:49:54;55.6;;;30;;
73315;SDS011;61545;53.726;-0.444;2023-02-15T00:54:54;54.0;;;30.4;;
73315;SDS011;61545;53.726;-0.444;2023-02-15T00:59:54;50.0;;;28.4;;
73315;SDS011;61545;53.726;-0.444;2023-02-15T01:04:54;44.3;;;25.3;;
73315;SDS011;61545;53.726;-0.444;2023-02-15T01:09:54;47.6;;;27.7;;
73315;SDS011;61545;53.726;-0.444;2023-02-15T01:14:54;47.6;;;27.7;;
73315;SDS011;61545;53.726;-0.444;2023-02-15T01:19:54;38.5;;;23.4;;
73315;SDS011;61545;53.726;-0.444;2023-02-15T01:24:54;38.2;;;22.3;;
73315;SDS011;61545;53.726;-0.444;2023-02-15T01:29:54;42.8;;;25.2;;
73315;SDS011;61545;53.726;-0.444;2023-02-15T01:34:54;36.3;;;22.7;;
73315;SDS011;61545;53.726;-0.444;2023-02-15T01:39:54;33.6;;;20.4;;
73315;SDS011;61545;53.726;-0.444;2023-02-15T01:44:55;33.6;;;20.4;;
73315;SDS011;61545;53.726;-0.444;2023-02-15T01:49:59;39.1;;;23.5;;
73315;SDS011;61545;53.726;-0.444;2023-02-15T01:54:54;36.0;;;22.1;;
73315;SDS011;61545;53.726;-0.444;2023-02-15T01:59:56;37.8;;;22.1;;
73315;SDS011;61545;53.726;-0.444;2023-02-15T02:04:56;37.8;;;22.8;;
73315;SDS011;61545;53.726;-0.444;2023-02-15T02:09:54;37.6;;;21.7;;
73315;SDS011;61545;53.726;-0.444;2023-02-15T02:14:54;37.6;;;21.7;;
73315;SDS011;61545;53.726;-0.444;2023-02-15T02:20:28;31.6;;;19.1;;
73315;SDS011;61545;53.726;-0.444;2023-02-15T02:25:05;31.5;;;19.7;;
73315;SDS011;61545;53.726;-0.444;2023-02-15T02:30:07;29.3;;;18.6;;
73315;SDS011;61545;53.726;-0.444;2023-02-15T02:34:55;28.3;;;18.2;;
73315;SDS011;61545;53.726;-0.444;2023-02-15T02:39:55;26.8;;;16;;
73315;SDS011;61545;53.726;-0.444;2023-02-15T02:44:57;26.8;;;16;;
73315;SDS011;61545;53.726;-0.444;2023-02-15T02:49:58;31.2;;;17.8;;
73315;SDS011;61545;53.726;-0.444;2023-02-15T02:54:54;31.0;;;19.2;;
73315;SDS011;61545;53.726;-0.444;2023-02-15T02:59:54;29.2;;;18;;
73315;SDS011;61545;53.726;-0.444;2023-02-15T03:04:55;32.3;;;18.5;;
73315;SDS011;61545;53.726;-0.444;2023-02-15T03:09:55;36.1;;;21;;
73315;SDS011;61545;53.726;-0.444;2023-02-15T03:14:55;36.1;;;21;;
73315;SDS011;61545;53.726;-0.444;2023-02-15T03:19:55;33.9;;;21.1;;
73315;SDS011;61545;53.726;-0.444;2023-02-15T03:24:56;35.3;;;21.2;;
73315;SDS011;61545;53.726;-0.444;2023-02-15T03:29:55;33.6;;;19.6;;
73315;SDS011;61545;53.726;-0.444;2023-02-15T03:34:54;37.4;;;21.7;;
73315;SDS011;61545;53.726;-0.444;2023-02-15T03:39:56;38.3;;;22.9;;
73315;SDS011;61545;53.726;-0.444;2023-02-15T03:44:57;38.3;;;22.9;;
73315;SDS011;61545;53.726;-0.444;2023-02-15T03:49:56;35.7;;;21.6;;
73315;SDS011;61545;53.726;-0.444;2023-02-15T03:54:54;37.9;;;21;;
73315;SDS011;61545;53.726;-0.444;2023-02-15T03:59:54;33.7;;;20.6;;
73315;SDS011;61545;53.726;-0.444;2023-02-15T04:04:54;40.4;;;23.2;;
73315;SDS011;61545;53.726;-0.444;2023-02-15T04:09:54;29.8;;;18.2;;
73315;SDS011;61545;53.726;-0.444;2023-02-15T04:14:54;29.8;;;18.2;;
73315;SDS011;61545;53.726;-0.444;2023-02-15T04:19:54;38.4;;;22.7;;
73315;SDS011;61545;53.726;-0.444;2023-02-15T04:24:54;44.3;;;24.4;;
73315;SDS011;61545;53.726;-0.444;2023-02-15T04:29:54;36.5;;;21.6;;
73315;SDS011;61545;53.726;-0.444;2023-02-15T04:34:54;36.5;;;20.9;;
73315;SDS011;61545;53.726;-0.444;2023-02-15T04:39:55;37.5;;;20.2;;
73315;SDS011;61545;53.726;-0.444;2023-02-15T04:44:54;37.5;;;20.2;;
73315;SDS011;61545;53.726;-0.444;2023-02-15T04:49:54;40.2;;;21.9;;
73315;SDS011;61545;53.726;-0.444;2023-02-15T04:54:54;39.4;;;22.5;;
73315;SDS011;61545;53.726;-0.444;2023-02-15T04:59:54;43.8;;;23.5;;
73315;SDS011;61545;53.726;-0.444;2023-02-15T05:04:54;39.5;;;22.8;;
73315;SDS011;61545;53.726;-0.444;2023-02-15T05:09:54;30.6;;;17.5;;
73315;SDS011;61545;53.726;-0.444;2023-02-15T05:14:54;30.6;;;17.5;;
73315;SDS011;61545;53.726;-0.444;2023-02-15T05:19:54;44.0;;;24.7;;
73315;SDS011;61545;53.726;-0.444;2023-02-15T05:24:54;56.5;;;30.8;;
73315;SDS011;61545;53.726;-0.444;2023-02-15T05:29:54;55.5;;;28.8;;
73315;SDS011;61545;53.726;-0.444;2023-02-15T05:34:54;58.8;;;30.4;;
73315;SDS011;61545;53.726;-0.444;2023-02-15T05:39:54;63.2;;;31;;
73315;SDS011;61545;53.726;-0.444;2023-02-15T05:44:54;63.2;;;31;;
73315;SDS011;61545;53.726;-0.444;2023-02-15T05:49:54;50.3;;;27.3;;
73315;SDS011;61545;53.726;-0.444;2023-02-15T05:54:54;50.1;;;27.2;;
73315;SDS011;61545;53.726;-0.444;2023-02-15T05:59:54;42.6;;;22.9;;
73315;SDS011;61545;53.726;-0.444;2023-02-15T06:04:54;28.3;;;17.1;;
73315;SDS011;61545;53.726;-0.444;2023-02-15T06:09:54;35.2;;;20.8;;
73315;SDS011;61545;53.726;-0.444;2023-02-15T06:14:54;35.2;;;20.8;;
73315;SDS011;61545;53.726;-0.444;2023-02-15T06:19:54;37.3;;;20.6;;
73315;SDS011;61545;53.726;-0.444;2023-02-15T06:24:54;34.4;;;19.8;;
73315;SDS011;61545;53.726;-0.444;2023-02-15T06:29:54;33.0;;;20.3;;
73315;SDS011;61545;53.726;-0.444;2023-02-15T06:34:54;35.9;;;21.6;;
73315;SDS011;61545;53.726;-0.444;2023-02-15T06:39:54;43.8;;;25.2;;
73315;SDS011;61545;53.726;-0.444;2023-02-15T06:44:55;43.8;;;25.2;;
73315;SDS011;61545;53.726;-0.444;2023-02-15T06:49:54;48.7;;;27.3;;
73315;SDS011;61545;53.726;-0.444;2023-02-15T06:54:54;47.1;;;26.7;;
73315;SDS011;61545;53.726;-0.444;2023-02-15T06:59:54;43.2;;;25.7;;
73315;SDS011;61545;53.726;-0.444;2023-02-15T07:04:54;49.6;;;27.4;;
73315;SDS011;61545;53.726;-0.444;2023-02-15T07:09:54;56.1;;;32.4;;
73315;SDS011;61545;53.726;-0.444;2023-02-15T07:14:54;56.1;;;32.4;;
73315;SDS011;61545;53.726;-0.444;2023-02-15T07:19:54;52.2;;;29.1;;
73315;SDS011;61545;53.726;-0.444;2023-02-15T07:24:55;59.7;;;32.3;;
73315;SDS011;61545;53.726;-0.444;2023-02-15T07:29:55;51.9;;;29;;
73315;SDS011;61545;53.726;-0.444;2023-02-15T07:34:55;51.5;;;29.5;;
73315;SDS011;61545;53.726;-0.444;2023-02-15T07:39:55;49.2;;;27.8;;
73315;SDS011;61545;53.726;-0.444;2023-02-15T07:44:54;49.2;;;27.8;;
73315;SDS011;61545;53.726;-0.444;2023-02-15T07:49:55;54.7;;;31.8;;
73315;SDS011;61545;53.726;-0.444;2023-02-15T07:54:55;61.0;;;33.5;;
73315;SDS011;61545;53.726;-0.444;2023-02-15T07:59:55;60.1;;;32.8;;
73315;SDS011;61545;53.726;-0.444;2023-02-15T08:04:55;55.0;;;31.1;;
73315;SDS011;61545;53.726;-0.444;2023-02-15T08:09:55;60.3;;;33;;
73315;SDS011;61545;53.726;-0.444;2023-02-15T08:14:55;60.3;;;33;;
73315;SDS011;61545;53.726;-0.444;2023-02-15T08:19:55;61.3;;;33.2;;
73315;SDS011;61545;53.726;-0.444;2023-02-15T08:24:55;60.1;;;33.9;;
73315;SDS011;61545;53.726;-0.444;2023-02-15T08:29:55;59.5;;;33.4;;
73315;SDS011;61545;53.726;-0.444;2023-02-15T08:34:55;60.6;;;33.5;;
73315;SDS011;61545;53.726;-0.444;2023-02-15T08:39:55;63.1;;;34.5;;
73315;SDS011;61545;53.726;-0.444;2023-02-15T08:44:55;63.1;;;34.5;;
73315;SDS011;61545;53.726;-0.444;2023-02-15T08:49:55;58.8;;;32.4;;
73315;SDS011;61545;53.726;-0.444;2023-02-15T08:59:55;57.1;;;32.5;;
73315;SDS011;61545;53.726;-0.444;2023-02-15T09:04:55;60.5;;;31.6;;
73315;SDS011;61545;53.726;-0.444;2023-02-15T09:09:55;63.7;;;33.6;;
73315;SDS011;61545;53.726;-0.444;2023-02-15T09:14:55;63.7;;;33.6;;
73315;SDS011;61545;53.726;-0.444;2023-02-15T09:19:55;56.7;;;31.8;;
73315;SDS011;61545;53.726;-0.444;2023-02-15T09:24:55;57.8;;;32.7;;
73315;SDS011;61545;53.726;-0.444;2023-02-15T09:29:55;61.3;;;32.9;;
73315;SDS011;61545;53.726;-0.444;2023-02-15T09:34:55;57.8;;;33;;
73315;SDS011;61545;53.726;-0.444;2023-02-15T09:39:55;53.9;;;30.9;;
73315;SDS011;61545;53.726;-0.444;2023-02-15T09:45:04;53.9;;;30.9;;
73315;SDS011;61545;53.726;-0.444;2023-02-15T09:49:57;54.4;;;30.9;;
73315;SDS011;61545;53.726;-0.444;2023-02-15T09:55:02;55.4;;;30.6;;
73315;SDS011;61545;53.726;-0.444;2023-02-15T09:59:59;57.7;;;32.7;;
73315;SDS011;61545;53.726;-0.444;2023-02-15T10:05:01;56.8;;;32.4;;
73315;SDS011;61545;53.726;-0.444;2023-02-15T10:10:02;58.3;;;32.7;;
73315;SDS011;61545;53.726;-0.444;2023-02-15T10:15:03;58.3;;;32.7;;
73315;SDS011;61545;53.726;-0.444;2023-02-15T10:20:01;57.7;;;33.1;;
73315;SDS011;61545;53.726;-0.444;2023-02-15T10:25:05;51.5;;;30.9;;
73315;SDS011;61545;53.726;-0.444;2023-02-15T10:30:01;59.9;;;32.8;;
73315;SDS011;61545;53.726;-0.444;2023-02-15T10:34:58;53.8;;;31.6;;
73315;SDS011;61545;53.726;-0.444;2023-02-15T10:40:00;51.7;;;30;;
73315;SDS011;61545;53.726;-0.444;2023-02-15T10:45:03;51.7;;;30;;
73315;SDS011;61545;53.726;-0.444;2023-02-15T10:50:17;54.7;;;30.6;;
73315;SDS011;61545;53.726;-0.444;2023-02-15T10:54:58;50.2;;;28.7;;
73315;SDS011;61545;53.726;-0.444;2023-02-15T11:00:03;52.4;;;29.8;;
73315;SDS011;61545;53.726;-0.444;2023-02-15T11:04:59;52.8;;;31.7;;
73315;SDS011;61545;53.726;-0.444;2023-02-15T11:09:59;56.9;;;31.9;;
73315;SDS011;61545;53.726;-0.444;2023-02-15T11:14:57;56.9;;;31.9;;
73315;SDS011;61545;53.726;-0.444;2023-02-15T11:19:58;52.6;;;30.2;;
73315;SDS011;61545;53.726;-0.444;2023-02-15T11:24:55;51.7;;;31;;
73315;SDS011;61545;53.726;-0.444;2023-02-15T11:29:58;50.5;;;29;;
73315;SDS011;61545;53.726;-0.444;2023-02-15T11:34:58;50.3;;;30;;
73315;SDS011;61545;53.726;-0.444;2023-02-15T11:39:55;51.3;;;29.8;;
73315;SDS011;61545;53.726;-0.444;2023-02-15T11:44:58;51.3;;;29.8;;
73315;SDS011;61545;53.726;-0.444;2023-02-15T11:49:56;52.6;;;31.1;;
73315;SDS011;61545;53.726;-0.444;2023-02-15T11:54:55;53.6;;;29.6;;
73315;SDS011;61545;53.726;-0.444;2023-02-15T11:59:58;55.6;;;31.7;;
73315;SDS011;61545;53.726;-0.444;2023-02-15T12:04:56;53.0;;;32.2;;
73315;SDS011;61545;53.726;-0.444;2023-02-15T12:09:59;55.6;;;30.7;;
73315;SDS011;61545;53.726;-0.444;2023-02-15T12:14:56;55.6;;;30.7;;
73315;SDS011;61545;53.726;-0.444;2023-02-15T12:19:56;54.4;;;31.1;;
73315;SDS011;61545;53.726;-0.444;2023-02-15T12:24:56;51.0;;;30.6;;
73315;SDS011;61545;53.726;-0.444;2023-02-15T12:29:56;46.9;;;30;;
73315;SDS011;61545;53.726;-0.444;2023-02-15T12:34:56;48.9;;;29.2;;
73315;SDS011;61545;53.726;-0.444;2023-02-15T12:39:56;50.1;;;28.4;;
73315;SDS011;61545;53.726;-0.444;2023-02-15T12:44:58;50.1;;;28.4;;
73315;SDS011;61545;53.726;-0.444;2023-02-15T12:50:26;48.5;;;28.7;;
73315;SDS011;61545;53.726;-0.444;2023-02-15T12:54:55;49.5;;;28;;
73315;SDS011;61545;53.726;-0.444;2023-02-15T12:59:56;43.0;;;24.9;;
73315;SDS011;61545;53.726;-0.444;2023-02-15T13:04:55;44.6;;;25.9;;
73315;SDS011;61545;53.726;-0.444;2023-02-15T13:09:55;42.8;;;24.6;;
73315;SDS011;61545;53.726;-0.444;2023-02-15T13:14:55;42.8;;;24.6;;
73315;SDS011;61545;53.726;-0.444;2023-02-15T13:19:56;46.3;;;25.9;;
73315;SDS011;61545;53.726;-0.444;2023-02-15T13:24:56;37.3;;;22.8;;
73315;SDS011;61545;53.726;-0.444;2023-02-15T13:29:56;37.9;;;22.9;;
73315;SDS011;61545;53.726;-0.444;2023-02-15T13:34:57;40.4;;;23.7;;
73315;SDS011;61545;53.726;-0.444;2023-02-15T13:39:57;37.4;;;21.7;;
73315;SDS011;61545;53.726;-0.444;2023-02-15T13:45:04;37.4;;;21.7;;
73315;SDS011;61545;53.726;-0.444;2023-02-15T13:50:04;36.8;;;22.3;;
73315;SDS011;61545;53.726;-0.444;2023-02-15T13:55:03;43.5;;;22.7;;
73315;SDS011;61545;53.726;-0.444;2023-02-15T14:00:02;37.3;;;20.1;;
73315;SDS011;61545;53.726;-0.444;2023-02-15T14:05:06;36.9;;;18.8;;
73315;SDS011;61545;53.726;-0.444;2023-02-15T14:10:02;32.3;;;18.4;;
73315;SDS011;61545;53.726;-0.444;2023-02-15T14:15:33;32.3;;;18.4;;
73315;SDS011;61545;53.726;-0.444;2023-02-15T14:19:57;38.5;;;19.8;;
73315;SDS011;61545;53.726;-0.444;2023-02-15T14:25:02;36.6;;;17.2;;
73315;SDS011;61545;53.726;-0.444;2023-02-15T14:29:56;34.8;;;17.8;;
73315;SDS011;61545;53.726;-0.444;2023-02-15T14:34:56;34.3;;;18.5;;
73315;SDS011;61545;53.726;-0.444;2023-02-15T14:39:57;37.8;;;18.8;;
73315;SDS011;61545;53.726;-0.444;2023-02-15T14:44:57;37.8;;;18.8;;
73315;SDS011;61545;53.726;-0.444;2023-02-15T14:49:55;37.5;;;18.4;;
73315;SDS011;61545;53.726;-0.444;2023-02-15T14:54:57;33.7;;;18;;
73315;SDS011;61545;53.726;-0.444;2023-02-15T14:59:56;33.1;;;18.5;;
73315;SDS011;61545;53.726;-0.444;2023-02-15T15:05:00;31.9;;;17.1;;
73315;SDS011;61545;53.726;-0.444;2023-02-15T15:09:59;33.9;;;18.1;;
73315;SDS011;61545;53.726;-0.444;2023-02-15T15:14:55;33.9;;;18.1;;
73315;SDS011;61545;53.726;-0.444;2023-02-15T15:19:57;37.0;;;19.8;;
73315;SDS011;61545;53.726;-0.444;2023-02-15T15:24:55;33.7;;;18.2;;
73315;SDS011;61545;53.726;-0.444;2023-02-15T15:29:55;36.8;;;19;;
73315;SDS011;61545;53.726;-0.444;2023-02-15T15:35:04;29.3;;;17.3;;
73315;SDS011;61545;53.726;-0.444;2023-02-15T15:45:08;29.8;;;16.3;;
73315;SDS011;61545;53.726;-0.444;2023-02-15T15:49:56;26.8;;;15.3;;
73315;SDS011;61545;53.726;-0.444;2023-02-15T15:54:56;20.1;;;11.7;;
73315;SDS011;61545;53.726;-0.444;2023-02-15T15:59:56;16.0;;;9.4;;
73315;SDS011;61545;53.726;-0.444;2023-02-15T16:05:04;17.5;;;10;;
73315;SDS011;61545;53.726;-0.444;2023-02-15T16:09:57;19.0;;;10.4;;
73315;SDS011;61545;53.726;-0.444;2023-02-15T16:14:55;19.0;;;10.4;;
73315;SDS011;61545;53.726;-0.444;2023-02-15T16:19:58;19.9;;;11.2;;
73315;SDS011;61545;53.726;-0.444;2023-02-15T16:25:05;19.7;;;10.7;;
73315;SDS011;61545;53.726;-0.444;2023-02-15T16:29:55;21.0;;;11;;
73315;SDS011;61545;53.726;-0.444;2023-02-15T16:34:56;21.2;;;11.6;;
73315;SDS011;61545;53.726;-0.444;2023-02-15T16:39:55;22.7;;;12.5;;
73315;SDS011;61545;53.726;-0.444;2023-02-15T16:44:57;22.7;;;12.5;;
73315;SDS011;61545;53.726;-0.444;2023-02-15T16:49:57;20.3;;;12.4;;
73315;SDS011;61545;53.726;-0.444;2023-02-15T16:54:57;20.4;;;12;;
73315;SDS011;61545;53.726;-0.444;2023-02-15T16:59:56;20.6;;;12.5;;
73315;SDS011;61545;53.726;-0.444;2023-02-15T17:05:14;20.5;;;12.3;;
73315;SDS011;61545;53.726;-0.444;2023-02-15T17:09:56;19.8;;;12.3;;
73315;SDS011;61545;53.726;-0.444;2023-02-15T17:14:55;19.8;;;12.3;;
73315;SDS011;61545;53.726;-0.444;2023-02-15T17:19:55;18.4;;;10.7;;
73315;SDS011;61545;53.726;-0.444;2023-02-15T17:24:58;19.4;;;11.2;;
73315;SDS011;61545;53.726;-0.444;2023-02-15T17:29:56;22.2;;;11.8;;
73315;SDS011;61545;53.726;-0.444;2023-02-15T17:34:59;21.4;;;12;;
73315;SDS011;61545;53.726;-0.444;2023-02-15T17:39:56;22.2;;;12.6;;
73315;SDS011;61545;53.726;-0.444;2023-02-15T17:44:55;22.2;;;12.6;;
73315;SDS011;61545;53.726;-0.444;2023-02-15T17:49:55;18.7;;;10.5;;
73315;SDS011;61545;53.726;-0.444;2023-02-15T17:54:55;22.0;;;11.7;;
73315;SDS011;61545;53.726;-0.444;2023-02-15T17:59:55;21.1;;;12.1;;
73315;SDS011;61545;53.726;-0.444;2023-02-15T18:04:55;21.0;;;12;;
73315;SDS011;61545;53.726;-0.444;2023-02-15T18:09:55;18.7;;;11.1;;
73315;SDS011;61545;53.726;-0.444;2023-02-15T18:14:56;18.7;;;11.1;;
73315;SDS011;61545;53.726;-0.444;2023-02-15T18:19:55;17.0;;;10.9;;
73315;SDS011;61545;53.726;-0.444;2023-02-15T18:24:55;16.9;;;9.3;;
73315;SDS011;61545;53.726;-0.444;2023-02-15T18:29:55;18.5;;;10.3;;
73315;SDS011;61545;53.726;-0.444;2023-02-15T18:34:56;11.8;;;7.4;;
73315;SDS011;61545;53.726;-0.444;2023-02-15T18:39:55;15.0;;;8.4;;
73315;SDS011;61545;53.726;-0.444;2023-02-15T18:44:57;15.0;;;8.4;;
73315;SDS011;61545;53.726;-0.444;2023-02-15T18:49:55;12.6;;;7.2;;
73315;SDS011;61545;53.726;-0.444;2023-02-15T18:55:00;14.7;;;8.6;;
73315;SDS011;61545;53.726;-0.444;2023-02-15T18:59:55;18.1;;;9.8;;
73315;SDS011;61545;53.726;-0.444;2023-02-15T19:04:55;16.0;;;8.8;;
73315;SDS011;61545;53.726;-0.444;2023-02-15T19:09:57;16.3;;;9.3;;
73315;SDS011;61545;53.726;-0.444;2023-02-15T19:14:56;16.3;;;9.3;;
73315;SDS011;61545;53.726;-0.444;2023-02-15T19:19:55;16.6;;;9.9;;
73315;SDS011;61545;53.726;-0.444;2023-02-15T19:24:58;18.8;;;11.1;;
73315;SDS011;61545;53.726;-0.444;2023-02-15T19:29:56;22.2;;;12.4;;
73315;SDS011;61545;53.726;-0.444;2023-02-15T19:34:55;22.3;;;12.8;;
73315;SDS011;61545;53.726;-0.444;2023-02-15T19:39:55;24.4;;;13.4;;
73315;SDS011;61545;53.726;-0.444;2023-02-15T19:44:56;24.4;;;13.4;;
73315;SDS011;61545;53.726;-0.444;2023-02-15T19:49:56;25.1;;;13.5;;
73315;SDS011;61545;53.726;-0.444;2023-02-15T19:54:55;27.8;;;15.7;;
73315;SDS011;61545;53.726;-0.444;2023-02-15T19:59:56;31.6;;;17.1;;
73315;SDS011;61545;53.726;-0.444;2023-02-15T20:04:56;24.4;;;15.4;;
73315;SDS011;61545;53.726;-0.444;2023-02-15T20:09:56;25.4;;;14.4;;
73315;SDS011;61545;53.726;-0.444;2023-02-15T20:14:56;25.4;;;14.4;;
73315;SDS011;61545;53.726;-0.444;2023-02-15T20:19:56;26.2;;;13.8;;
73315;SDS011;61545;53.726;-0.444;2023-02-15T20:24:56;22.1;;;12.9;;
73315;SDS011;61545;53.726;-0.444;2023-02-15T20:29:56;23.3;;;12.3;;
73315;SDS011;61545;53.726;-0.444;2023-02-15T20:34:56;25.0;;;13.4;;
73315;SDS011;61545;53.726;-0.444;2023-02-15T20:39:56;26.4;;;14.8;;
73315;SDS011;61545;53.726;-0.444;2023-02-15T20:44:56;26.4;;;14.8;;
73315;SDS011;61545;53.726;-0.444;2023-02-15T20:49:56;26.4;;;15.2;;
73315;SDS011;61545;53.726;-0.444;2023-02-15T20:54:56;28.5;;;16.5;;
73315;SDS011;61545;53.726;-0.444;2023-02-15T20:59:56;31.3;;;16.9;;
73315;SDS011;61545;53.726;-0.444;2023-02-15T21:04:56;31.6;;;17.1;;
73315;SDS011;61545;53.726;-0.444;2023-02-15T21:09:56;33.2;;;17.5;;
73315;SDS011;61545;53.726;-0.444;2023-02-15T21:14:56;33.2;;;17.5;;
73315;SDS011;61545;53.726;-0.444;2023-02-15T21:19:56;31.7;;;16.1;;
73315;SDS011;61545;53.726;-0.444;2023-02-15T21:24:56;31.2;;;17.4;;
73315;SDS011;61545;53.726;-0.444;2023-02-15T21:29:56;38.3;;;17.7;;
73315;SDS011;61545;53.726;-0.444;2023-02-15T21:34:56;38.3;;;20.5;;
73315;SDS011;61545;53.726;-0.444;2023-02-15T21:39:56;32.5;;;18.9;;
73315;SDS011;61545;53.726;-0.444;2023-02-15T21:44:56;32.5;;;18.9;;
73315;SDS011;61545;53.726;-0.444;2023-02-15T21:49:56;37.0;;;19.7;;
73315;SDS011;61545;53.726;-0.444;2023-02-15T21:54:56;37.0;;;20.3;;
73315;SDS011;61545;53.726;-0.444;2023-02-15T21:59:56;33.0;;;19.3;;
73315;SDS011;61545;53.726;-0.444;2023-02-15T22:04:56;34.7;;;19;;
73315;SDS011;61545;53.726;-0.444;2023-02-15T22:09:56;32.5;;;17.9;;
73315;SDS011;61545;53.726;-0.444;2023-02-15T22:14:56;32.5;;;17.9;;
73315;SDS011;61545;53.726;-0.444;2023-02-15T22:19:56;28.8;;;15.2;;
73315;SDS011;61545;53.726;-0.444;2023-02-15T22:24:56;24.9;;;13.7;;
73315;SDS011;61545;53.726;-0.444;2023-02-15T22:29:56;19.2;;;10.8;;
73315;SDS011;61545;53.726;-0.444;2023-02-15T22:34:56;22.7;;;11.3;;
73315;SDS011;61545;53.726;-0.444;2023-02-15T22:39:56;22.7;;;11.3;;
73315;SDS011;61545;53.726;-0.444;2023-02-15T22:44:56;23.5;;;11.2;;
73315;SDS011;61545;53.726;-0.444;2023-02-15T22:49:56;18.3;;;9.8;;
73315;SDS011;61545;53.726;-0.444;2023-02-15T22:54:56;17.9;;;9.3;;
73315;SDS011;61545;53.726;-0.444;2023-02-15T22:59:56;19.5;;;9;;
73315;SDS011;61545;53.726;-0.444;2023-02-15T23:04:56;15.7;;;7.9;;
73315;SDS011;61545;53.726;-0.444;2023-02-15T23:09:56;15.7;;;7.9;;
73315;SDS011;61545;53.726;-0.444;2023-02-15T23:14:56;15.0;;;8.6;;
73315;SDS011;61545;53.726;-0.444;2023-02-15T23:19:56;12.6;;;7;;
73315;SDS011;61545;53.726;-0.444;2023-02-15T23:24:56;14.8;;;7.5;;
73315;SDS011;61545;53.726;-0.444;2023-02-15T23:29:56;13.5;;;6.9;;
73315;SDS011;61545;53.726;-0.444;2023-02-15T23:34:56;14.5;;;6.7;;
73315;SDS011;61545;53.726;-0.444;2023-02-15T23:39:56;14.5;;;6.7;;
73315;SDS011;61545;53.726;-0.444;2023-02-15T23:44:56;13.1;;;6.5;;
73315;SDS011;61545;53.726;-0.444;2023-02-15T23:49:56;14.3;;;6.9;;
73315;SDS011;61545;53.726;-0.444;2023-02-15T23:54:56;10.8;;;5.6;;
73315;SDS011;61545;53.726;-0.444;2023-02-15T23:59:56;11.7;;;5.9;;
